Time;durP1;ratioP1;P1;durP2;ratioP2;P2;SDS_P1;SDS_P2;PMS_P1;PMS_P2;Temp;Humidity;BMP_temperature;BMP_pressure;BME280_temperature;BME280_humidity;BME280_pressure;Samples;Min_cycle;Max_cycle;Signal;HPM_P1;HPM_P2
2023/06/17 00:00:09;;;;;;;5.20;3.38;;;21.40;94.20;;;;;;7390777;19;20614;-78
2023/06/17 00:02:35;;;;;;;3.03;2.63;;;21.20;94.30;;;;;;7386875;19;20550;-78
2023/06/17 00:05:02;;;;;;;3.58;2.90;;;21.10;94.70;;;;;;7387542;19;20139;-78
2023/06/17 00:07:29;;;;;;;4.32;3.15;;;21.20;94.70;;;;;;7385461;19;20155;-77
2023/06/17 00:09:55;;;;;;;4.78;3.33;;;21.30;94.70;;;;;;7389030;19;20141;-77
2023/06/17 00:12:22;;;;;;;6.07;2.97;;;21.30;95.00;;;;;;7389323;19;20131;-77
2023/06/17 00:14:50;;;;;;;4.90;3.20;;;21.20;95.30;;;;;;7389536;19;20134;-76
2023/06/17 00:17:17;;;;;;;3.95;2.95;;;21.20;95.40;;;;;;7386101;19;20158;-77
2023/06/17 00:19:43;;;;;;;4.18;3.28;;;21.10;95.80;;;;;;7389276;19;20270;-77
2023/06/17 00:22:09;;;;;;;4.80;3.40;;;20.90;96.40;;;;;;7386483;19;20131;-78
2023/06/17 00:24:35;;;;;;;4.55;3.45;;;20.90;96.40;;;;;;7389753;19;20157;-77
2023/06/17 00:27:01;;;;;;;4.00;3.13;;;20.70;97.10;;;;;;7386260;19;20146;-77
2023/06/17 00:29:27;;;;;;;4.50;3.53;;;20.70;97.30;;;;;;7388969;19;20173;-77
2023/06/17 00:31:52;;;;;;;5.28;3.50;;;20.60;97.90;;;;;;7385500;19;20235;-77
2023/06/17 00:34:18;;;;;;;4.18;3.55;;;20.60;98.10;;;;;;7388611;19;20134;-77
2023/06/17 00:36:44;;;;;;;8.70;3.67;;;20.70;97.90;;;;;;7386003;19;20153;-76
2023/06/17 00:39:10;;;;;;;4.95;3.80;;;20.70;98.20;;;;;;7376514;19;20552;-77
2023/06/17 00:41:35;;;;;;;3.83;3.08;;;20.80;98.20;;;;;;7381555;19;20138;-77
2023/06/17 00:44:01;;;;;;;5.10;3.50;;;20.80;98.20;;;;;;7385311;19;20231;-77
2023/06/17 00:46:30;;;;;;;4.95;3.42;;;20.70;98.70;;;;;;7388348;19;20134;-77
2023/06/17 00:48:56;;;;;;;5.75;4.18;;;20.70;99.00;;;;;;7386443;19;20131;-77
2023/06/17 00:51:23;;;;;;;5.45;3.70;;;20.70;99.30;;;;;;7388301;19;20157;-77
2023/06/17 00:53:49;;;;;;;6.65;3.75;;;20.70;99.10;;;;;;7387440;19;20142;-76
2023/06/17 00:56:17;;;;;;;5.72;3.70;;;20.60;99.30;;;;;;7388420;19;20596;-77
2023/06/17 00:58:44;;;;;;;5.90;3.75;;;20.30;99.90;;;;;;7382653;19;20149;-77
2023/06/17 01:01:10;;;;;;;4.40;3.35;;;20.40;99.90;;;;;;7387585;19;20249;-76
2023/06/17 01:03:36;;;;;;;4.63;3.47;;;20.30;99.90;;;;;;7386756;19;20182;-76
2023/06/17 01:06:11;;;;;;;5.45;3.58;;;20.40;99.90;;;;;;7387932;19;20157;-76
2023/06/17 01:08:57;;;;;;;5.60;3.60;;;20.50;99.90;;;;;;7388127;19;20118;-75
2023/06/17 01:11:24;;;;;;;5.53;3.60;;;20.50;99.90;;;;;;7387753;19;20202;-76
2023/06/17 01:13:51;;;;;;;5.57;3.78;;;20.30;99.90;;;;;;7384962;19;20169;-76
2023/06/17 01:16:17;;;;;;;3.53;3.20;;;20.50;99.90;;;;;;7387295;19;20142;-77
2023/06/17 01:18:48;;;;;;;5.70;3.33;;;20.40;99.90;;;;;;7391212;19;20139;-76
2023/06/17 01:21:18;;;;;;;5.72;3.35;;;20.40;99.90;;;;;;7393831;19;20583;-77
2023/06/17 01:23:52;;;;;;;3.40;3.05;;;20.40;99.90;;;;;;7391934;19;20142;-77
2023/06/17 01:26:19;;;;;;;5.07;3.55;;;20.40;99.90;;;;;;7395442;19;20749;-76
2023/06/17 01:28:45;;;;;;;6.97;3.78;;;20.20;99.90;;;;;;7393649;19;20562;-76
2023/06/17 01:31:18;;;;;;;5.60;3.78;;;20.20;99.90;;;;;;7394309;19;20165;-77
2023/06/17 01:33:50;;;;;;;4.07;3.35;;;20.20;99.90;;;;;;7395832;19;20157;-77
2023/06/17 01:36:22;;;;;;;5.18;3.60;;;20.10;99.90;;;;;;7394535;19;20148;-75
2023/06/17 01:38:51;;;;;;;5.85;3.83;;;20.10;99.90;;;;;;7393566;19;20182;-75
2023/06/17 01:41:29;;;;;;;4.70;3.65;;;20.20;99.90;;;;;;7393129;19;20131;-76
2023/06/17 01:43:57;;;;;;;6.10;3.40;;;20.30;99.90;;;;;;7396858;19;20172;-76
2023/06/17 01:46:24;;;;;;;7.55;3.72;;;19.90;99.90;;;;;;7400029;19;20130;-78
2023/06/17 01:48:55;;;;;;;4.43;3.40;;;19.80;99.90;;;;;;7398057;19;20158;-78
2023/06/17 01:51:21;;;;;;;4.20;3.35;;;19.70;99.90;;;;;;7396086;19;20138;-77
2023/06/17 01:53:47;;;;;;;5.03;3.20;;;19.60;99.90;;;;;;7391628;19;20618;-78
2023/06/17 01:56:12;;;;;;;5.13;3.17;;;19.70;99.90;;;;;;7397391;19;20655;-76
2023/06/17 01:58:39;;;;;;;4.65;3.70;;;19.90;99.90;;;;;;7390369;19;20948;-77
2023/06/17 02:01:05;;;;;;;5.15;3.55;;;20.00;99.90;;;;;;7391578;19;20142;-76
2023/06/17 02:03:31;;;;;;;8.25;4.28;;;20.10;99.90;;;;;;7392595;19;20497;-77
2023/06/17 02:05:57;;;;;;;6.13;3.97;;;20.00;99.90;;;;;;7390950;19;20143;-77
2023/06/17 02:08:23;;;;;;;6.05;4.30;;;20.10;99.90;;;;;;7391425;19;20133;-77
2023/06/17 02:10:49;;;;;;;6.50;4.00;;;20.00;99.90;;;;;;7390752;19;20694;-78
2023/06/17 02:13:15;;;;;;;8.65;4.50;;;20.00;99.90;;;;;;7393761;19;20138;-78
2023/06/17 02:15:42;;;;;;;4.97;3.85;;;19.90;99.90;;;;;;7388302;19;20138;-78
2023/06/17 02:18:09;;;;;;;10.30;3.75;;;19.70;99.90;;;;;;7390396;19;20131;-77
2023/06/17 02:20:35;;;;;;;5.80;4.00;;;19.70;99.90;;;;;;7387747;19;20151;-76
2023/06/17 02:23:00;;;;;;;5.45;3.95;;;19.70;99.90;;;;;;7392844;19;20130;-77
2023/06/17 02:25:27;;;;;;;4.80;3.63;;;19.70;99.90;;;;;;7390988;19;20126;-77
2023/06/17 02:27:53;;;;;;;6.85;4.10;;;19.70;99.90;;;;;;7391032;19;20143;-77
2023/06/17 02:30:19;;;;;;;6.38;4.13;;;19.80;99.90;;;;;;7389292;19;20134;-77
2023/06/17 02:32:44;;;;;;;4.78;4.05;;;19.80;99.90;;;;;;7391919;19;20139;-77
2023/06/17 02:35:10;;;;;;;5.60;3.42;;;19.40;99.90;;;;;;7389486;19;20138;-78
2023/06/17 02:37:37;;;;;;;5.90;4.10;;;19.50;99.90;;;;;;7391793;19;20143;-77
2023/06/17 02:40:07;;;;;;;7.45;4.28;;;19.60;99.90;;;;;;7389018;19;20161;-78
2023/06/17 02:42:33;;;;;;;6.47;4.57;;;19.70;99.90;;;;;;7389836;19;20650;-77
2023/06/17 02:44:59;;;;;;;6.43;4.18;;;19.70;99.90;;;;;;7388646;19;20155;-77
2023/06/17 02:47:25;;;;;;;6.45;4.13;;;19.80;99.90;;;;;;7387590;19;20169;-77
2023/06/17 02:49:51;;;;;;;5.30;3.80;;;19.80;99.90;;;;;;7387771;19;20366;-76
2023/06/17 02:52:17;;;;;;;7.78;4.85;;;19.70;99.90;;;;;;7391159;19;20159;-77
2023/06/17 02:54:43;;;;;;;7.45;4.00;;;19.70;99.90;;;;;;7389827;19;20583;-77
2023/06/17 02:57:09;;;;;;;5.95;4.13;;;19.70;99.90;;;;;;7389814;19;20142;-78
2023/06/17 02:59:36;;;;;;;7.25;4.40;;;19.50;99.90;;;;;;7387486;19;20171;-78
2023/06/17 03:02:01;;;;;;;6.78;3.97;;;19.40;99.90;;;;;;7391805;19;20532;-77
2023/06/17 03:04:35;;;;;;;5.68;3.85;;;19.50;99.90;;;;;;7388595;19;20126;-77
2023/06/17 03:07:06;;;;;;;5.82;3.90;;;19.50;99.90;;;;;;7388668;19;20135;-78
2023/06/17 03:09:32;;;;;;;4.88;3.60;;;19.60;99.90;;;;;;7388155;19;20162;-77
2023/06/17 03:11:59;;;;;;;4.03;3.63;;;19.50;99.90;;;;;;7390070;19;20168;-78
2023/06/17 03:14:25;;;;;;;7.97;4.13;;;19.40;99.90;;;;;;7386357;19;20630;-77
2023/06/17 03:16:51;;;;;;;5.78;4.30;;;19.50;99.90;;;;;;7386424;19;20127;-76
2023/06/17 03:19:17;;;;;;;6.03;4.22;;;19.40;99.90;;;;;;7386169;19;20146;-76
2023/06/17 03:21:45;;;;;;;5.28;3.88;;;19.40;99.90;;;;;;7388980;19;20460;-78
2023/06/17 03:24:11;;;;;;;6.45;4.20;;;19.30;99.90;;;;;;7390155;19;20218;-77
2023/06/17 03:26:36;;;;;;;5.53;4.20;;;19.30;99.90;;;;;;7386459;19;20219;-77
2023/06/17 03:29:03;;;;;;;5.35;4.00;;;19.40;99.90;;;;;;7388865;19;20139;-77
2023/06/17 03:31:29;;;;;;;5.72;3.70;;;19.40;99.90;;;;;;7386392;19;20135;-78
2023/06/17 03:33:55;;;;;;;5.10;3.83;;;19.40;99.90;;;;;;7389003;19;20219;-77
2023/06/17 03:36:30;;;;;;;6.90;4.32;;;19.40;99.90;;;;;;7386432;19;20182;-77
2023/06/17 03:38:56;;;;;;;6.30;4.00;;;19.20;99.90;;;;;;7388130;19;20146;-74
2023/06/17 03:41:26;;;;;;;6.00;4.50;;;19.30;99.90;;;;;;7385817;19;20141;-75
2023/06/17 03:43:52;;;;;;;5.95;4.55;;;19.30;99.90;;;;;;7387868;19;20163;-75
2023/06/17 03:46:18;;;;;;;5.55;4.13;;;19.20;99.90;;;;;;7386558;19;20135;-76
2023/06/17 03:48:44;;;;;;;7.63;4.30;;;19.10;99.90;;;;;;7389934;19;20148;-76
2023/06/17 03:51:11;;;;;;;4.57;3.63;;;19.10;99.90;;;;;;7390789;19;20634;-76
2023/06/17 03:53:37;;;;;;;10.13;4.20;;;19.10;99.90;;;;;;7385610;19;20200;-75
2023/06/17 03:56:03;;;;;;;4.43;3.95;;;19.10;99.90;;;;;;7389348;19;20138;-75
2023/06/17 03:58:29;;;;;;;4.50;3.97;;;19.10;99.90;;;;;;7388523;19;20141;-75
2023/06/17 04:00:56;;;;;;;5.25;3.67;;;19.20;99.90;;;;;;7388011;19;20141;-75
2023/06/17 04:03:25;;;;;;;8.18;4.38;;;19.30;99.90;;;;;;7391092;19;20447;-75
2023/06/17 04:05:54;;;;;;;4.65;4.03;;;19.30;99.90;;;;;;7386324;19;20131;-75
2023/06/17 04:08:22;;;;;;;5.03;3.67;;;19.30;99.90;;;;;;7388909;19;20157;-75
2023/06/17 04:10:48;;;;;;;4.25;3.85;;;19.20;99.90;;;;;;7387853;19;20133;-75
2023/06/17 04:13:14;;;;;;;4.63;3.58;;;19.20;99.90;;;;;;7387065;19;20134;-75
2023/06/17 04:15:41;;;;;;;5.07;3.97;;;18.90;99.90;;;;;;7386547;19;20146;-75
2023/06/17 04:18:06;;;;;;;4.88;3.40;;;19.00;99.90;;;;;;7385819;19;20139;-75
2023/06/17 04:20:34;;;;;;;6.07;3.83;;;19.20;99.90;;;;;;7387362;19;20154;-75
2023/06/17 04:23:00;;;;;;;6.45;3.60;;;19.20;99.90;;;;;;7387511;19;20143;-75
2023/06/17 04:25:27;;;;;;;4.13;3.38;;;19.10;99.90;;;;;;7386493;19;20135;-75
2023/06/17 04:27:58;;;;;;;5.60;3.45;;;19.20;99.90;;;;;;7386688;19;20139;-75
2023/06/17 04:30:26;;;;;;;3.90;3.17;;;19.20;99.90;;;;;;7385863;19;20126;-75
2023/06/17 04:32:54;;;;;;;5.22;3.75;;;19.30;99.90;;;;;;7387140;19;20138;-73
2023/06/17 04:35:20;;;;;;;5.05;3.30;;;19.30;99.90;;;;;;7386351;19;20131;-75
2023/06/17 04:37:53;;;;;;;5.03;3.42;;;19.40;99.90;;;;;;7383608;19;20182;-75
2023/06/17 04:40:20;;;;;;;6.90;3.58;;;19.40;99.90;;;;;;7385535;19;20138;-76
2023/06/17 04:42:47;;;;;;;3.72;3.17;;;19.40;99.90;;;;;;7382581;19;20446;-74
2023/06/17 04:45:13;;;;;;;5.07;3.75;;;19.30;99.90;;;;;;7387557;19;20146;-75
2023/06/17 04:47:39;;;;;;;4.28;3.22;;;19.40;99.90;;;;;;7386613;19;20174;-75
2023/06/17 04:50:05;;;;;;;4.22;3.63;;;19.40;99.90;;;;;;7385949;19;20123;-75
2023/06/17 04:52:31;;;;;;;5.43;3.75;;;19.50;99.90;;;;;;7383491;19;20249;-75
2023/06/17 04:54:57;;;;;;;4.68;3.53;;;19.50;99.90;;;;;;7384305;19;20241;-76
2023/06/17 04:57:23;;;;;;;3.85;3.22;;;19.40;99.90;;;;;;7385170;19;20135;-76
2023/06/17 04:59:48;;;;;;;4.72;3.95;;;19.40;99.90;;;;;;7383305;19;20157;-75
2023/06/17 05:02:14;;;;;;;7.05;4.68;;;19.40;99.90;;;;;;7386922;19;20149;-74
2023/06/17 05:04:40;;;;;;;7.97;4.15;;;19.30;99.90;;;;;;7383780;19;20139;-74
2023/06/17 05:07:06;;;;;;;6.25;4.25;;;19.40;99.90;;;;;;7386968;19;20143;-75
2023/06/17 05:09:32;;;;;;;7.20;4.45;;;19.30;99.90;;;;;;7383192;19;20123;-75
2023/06/17 05:11:58;;;;;;;4.78;4.10;;;19.40;99.90;;;;;;7387416;19;20138;-75
2023/06/17 05:14:24;;;;;;;5.53;4.20;;;19.50;99.90;;;;;;7386474;19;20563;-75
2023/06/17 05:16:50;;;;;;;7.07;4.05;;;19.40;99.90;;;;;;7382615;19;20131;-74
2023/06/17 05:19:16;;;;;;;6.53;4.30;;;19.40;99.90;;;;;;7381562;19;20190;-75
2023/06/17 05:21:41;;;;;;;18.70;5.80;;;19.40;99.90;;;;;;7381804;19;20130;-75
2023/06/17 05:24:07;;;;;;;6.68;5.03;;;19.50;99.90;;;;;;7386224;19;20599;-75
2023/06/17 05:26:33;;;;;;;6.93;4.47;;;19.50;99.90;;;;;;7385289;19;20603;-75
2023/06/17 05:28:59;;;;;;;5.20;3.92;;;19.60;99.90;;;;;;7385747;19;20254;-76
2023/06/17 05:31:24;;;;;;;7.13;4.30;;;19.50;99.90;;;;;;7383145;19;20193;-73
2023/06/17 05:33:50;;;;;;;6.13;4.55;;;19.60;99.90;;;;;;7385306;19;20146;-74
2023/06/17 05:36:16;;;;;;;5.38;4.57;;;19.60;99.90;;;;;;7381443;19;20647;-74
2023/06/17 05:38:41;;;;;;;4.78;4.28;;;19.50;99.90;;;;;;7384732;19;20146;-74
2023/06/17 05:41:07;;;;;;;5.53;4.30;;;19.50;99.90;;;;;;7383125;19;20167;-74
2023/06/17 05:43:33;;;;;;;5.28;4.50;;;19.50;99.90;;;;;;7382589;19;20290;-75
2023/06/17 05:45:59;;;;;;;5.70;4.20;;;19.40;99.90;;;;;;7382332;19;20155;-76
2023/06/17 05:48:25;;;;;;;5.47;4.35;;;19.40;99.90;;;;;;7385853;19;20142;-75
2023/06/17 05:50:51;;;;;;;6.97;4.47;;;19.40;99.90;;;;;;7384468;19;20774;-75
2023/06/17 05:53:17;;;;;;;6.53;4.57;;;19.50;99.90;;;;;;7382253;19;20134;-75
2023/06/17 05:55:43;;;;;;;4.88;4.20;;;19.60;99.90;;;;;;7385846;19;20151;-75
2023/06/17 05:58:09;;;;;;;6.18;4.53;;;19.50;99.90;;;;;;7383710;19;20555;-75
2023/06/17 06:00:35;;;;;;;6.20;4.28;;;19.60;99.90;;;;;;7383690;19;20217;-75
2023/06/17 06:03:00;;;;;;;5.60;4.18;;;19.70;99.90;;;;;;7383097;19;20488;-75
2023/06/17 06:05:27;;;;;;;7.90;4.75;;;19.70;99.90;;;;;;7388280;19;20138;-76
2023/06/17 06:07:52;;;;;;;5.50;4.20;;;19.70;99.90;;;;;;7389575;19;20134;-75
2023/06/17 06:10:20;;;;;;;6.35;4.20;;;19.90;99.90;;;;;;7390552;19;20164;-75
2023/06/17 06:12:46;;;;;;;5.63;4.40;;;20.20;99.90;;;;;;7390101;19;20154;-75
2023/06/17 06:15:13;;;;;;;6.72;4.18;;;21.70;99.90;;;;;;7391479;19;20607;-75
2023/06/17 06:17:39;;;;;;;6.10;4.13;;;23.30;99.90;;;;;;7390452;19;20150;-75
2023/06/17 06:20:05;;;;;;;5.60;4.57;;;24.60;97.30;;;;;;7387498;19;20613;-75
2023/06/17 06:22:30;;;;;;;5.93;4.30;;;25.30;95.10;;;;;;7390598;19;20130;-76
2023/06/17 06:24:56;;;;;;;5.07;4.28;;;25.90;93.90;;;;;;7388669;19;20619;-75
2023/06/17 06:27:25;;;;;;;6.03;4.30;;;26.70;92.40;;;;;;7389897;19;20206;-76
2023/06/17 06:29:51;;;;;;;4.95;3.97;;;27.00;91.40;;;;;;7387453;19;20155;-75
2023/06/17 06:32:16;;;;;;;5.35;4.35;;;27.50;90.50;;;;;;7388398;19;20145;-76
2023/06/17 06:34:42;;;;;;;8.15;4.47;;;27.90;88.90;;;;;;7387520;19;20665;-76
2023/06/17 06:37:08;;;;;;;6.35;4.40;;;28.30;87.60;;;;;;7390573;19;20142;-76
2023/06/17 06:39:34;;;;;;;7.55;4.30;;;28.90;85.50;;;;;;7384856;19;20154;-75
2023/06/17 06:42:00;;;;;;;6.40;5.20;;;29.30;83.30;;;;;;7388905;19;20217;-76
2023/06/17 06:44:26;;;;;;;5.25;4.65;;;29.50;82.50;;;;;;7389384;19;20143;-75
2023/06/17 06:46:53;;;;;;;7.18;4.72;;;30.10;80.20;;;;;;7387276;19;20441;-77
2023/06/17 06:49:21;;;;;;;5.55;4.20;;;29.20;80.00;;;;;;7390297;19;20681;-77
2023/06/17 06:51:46;;;;;;;5.95;4.88;;;28.30;82.90;;;;;;7388719;19;20154;-76
2023/06/17 06:54:12;;;;;;;7.03;4.28;;;28.00;83.60;;;;;;7387422;19;20139;-77
2023/06/17 06:56:38;;;;;;;6.20;4.18;;;28.20;83.30;;;;;;7388029;19;20147;-76
2023/06/17 06:59:04;;;;;;;9.35;4.63;;;28.50;82.80;;;;;;7387935;19;20157;-78
2023/06/17 07:01:30;;;;;;;6.07;4.40;;;28.80;82.00;;;;;;7386090;19;20167;-78
2023/06/17 07:03:58;;;;;;;5.53;4.72;;;28.50;81.90;;;;;;7388577;19;20142;-78
2023/06/17 07:06:23;;;;;;;6.35;4.40;;;28.80;81.30;;;;;;7384068;19;20642;-77
2023/06/17 07:08:49;;;;;;;4.90;4.20;;;29.00;80.50;;;;;;7375403;19;20630;-75
2023/06/17 07:11:15;;;;;;;5.13;4.32;;;29.10;80.10;;;;;;7382099;19;20424;-77
2023/06/17 07:13:41;;;;;;;6.50;4.57;;;29.30;79.90;;;;;;7386196;19;20500;-75
2023/06/17 07:16:07;;;;;;;5.07;4.40;;;29.60;78.90;;;;;;7385938;19;20173;-77
2023/06/17 07:18:32;;;;;;;6.35;4.50;;;29.40;79.20;;;;;;7382513;19;20591;-76
2023/06/17 07:20:58;;;;;;;7.18;4.82;;;29.30;80.00;;;;;;7389365;19;20214;-76
2023/06/17 07:23:25;;;;;;;4.80;4.30;;;29.00;79.30;;;;;;7387550;19;20179;-75
2023/06/17 07:25:51;;;;;;;6.63;4.40;;;28.80;79.60;;;;;;7387748;19;20165;-77
2023/06/17 07:28:17;;;;;;;5.88;4.70;;;28.40;80.30;;;;;;7387621;19;20146;-75
2023/06/17 07:30:43;;;;;;;4.57;4.07;;;28.00;81.00;;;;;;7387422;19;20235;-75
2023/06/17 07:33:09;;;;;;;6.40;4.40;;;27.80;81.50;;;;;;7388392;19;20137;-75
2023/06/17 07:35:35;;;;;;;9.38;5.18;;;27.70;82.00;;;;;;7388625;19;20147;-76
2023/06/17 07:38:01;;;;;;;6.30;4.68;;;27.70;81.80;;;;;;7383297;19;20402;-76
2023/06/17 07:40:27;;;;;;;4.57;3.95;;;27.80;81.60;;;;;;7382301;19;20617;-76
2023/06/17 07:42:52;;;;;;;6.28;4.10;;;27.60;81.90;;;;;;7385277;19;20818;-75
2023/06/17 07:45:18;;;;;;;6.70;4.38;;;27.60;82.40;;;;;;7388872;19;20515;-76
2023/06/17 07:47:44;;;;;;;8.20;4.43;;;27.60;82.20;;;;;;7386686;19;20139;-77
2023/06/17 07:50:10;;;;;;;5.13;4.22;;;27.50;82.40;;;;;;7384943;19;20165;-75
2023/06/17 07:52:36;;;;;;;7.35;4.15;;;27.60;81.90;;;;;;7387150;19;20138;-76
2023/06/17 07:55:03;;;;;;;5.43;4.35;;;27.80;81.40;;;;;;7388258;19;20151;-77
2023/06/17 07:57:29;;;;;;;5.10;4.40;;;27.90;81.00;;;;;;7387029;19;20143;-77
2023/06/17 07:59:55;;;;;;;6.70;4.20;;;28.10;81.20;;;;;;7385377;19;20497;-77
2023/06/17 08:02:21;;;;;;;8.18;4.30;;;28.50;80.40;;;;;;7386536;19;20141;-79
2023/06/17 08:04:49;;;;;;;6.22;4.38;;;28.80;79.70;;;;;;7386227;19;20150;-75
2023/06/17 08:07:15;;;;;;;6.13;3.88;;;29.10;78.30;;;;;;7388788;19;20135;-77
2023/06/17 08:09:41;;;;;;;5.43;4.68;;;28.90;78.50;;;;;;7386368;19;20141;-76
2023/06/17 08:12:07;;;;;;;6.28;4.45;;;28.70;78.70;;;;;;7386822;19;20534;-73
2023/06/17 08:14:33;;;;;;;5.25;4.55;;;28.70;79.00;;;;;;7389848;19;20130;-76
2023/06/17 08:16:59;;;;;;;6.80;4.25;;;28.40;78.80;;;;;;7388673;19;20618;-77
2023/06/17 08:19:25;;;;;;;5.32;4.82;;;28.50;79.10;;;;;;7384030;19;20522;-82
2023/06/17 08:21:51;;;;;;;8.20;5.40;;;28.80;78.90;;;;;;7385589;19;20827;-77
2023/06/17 08:24:21;;;;;;;8.15;5.82;;;28.90;78.00;;;;;;7386817;19;20127;-83
2023/06/17 08:26:48;;;;;;;6.70;4.68;;;28.90;77.50;;;;;;7387443;19;20160;-81
2023/06/17 08:29:15;;;;;;;4.93;4.30;;;28.90;77.60;;;;;;7390072;19;20146;-78
2023/06/17 08:31:42;;;;;;;4.85;4.28;;;28.90;77.20;;;;;;7386742;19;20500;-79
2023/06/17 08:34:09;;;;;;;5.38;3.97;;;28.90;77.10;;;;;;7391073;19;20236;-80
2023/06/17 08:36:37;;;;;;;6.65;4.55;;;28.90;77.20;;;;;;7390333;19;20145;-80
2023/06/17 08:39:03;;;;;;;5.78;5.07;;;28.80;77.00;;;;;;7389574;19;20137;-78
2023/06/17 08:41:29;;;;;;;4.93;4.43;;;28.70;76.60;;;;;;7387874;19;20528;-77
2023/06/17 08:44:01;;;;;;;9.23;5.55;;;28.50;76.60;;;;;;7386090;19;20146;-80
2023/06/17 08:46:27;;;;;;;5.13;4.18;;;28.40;76.10;;;;;;7391306;19;20951;-76
2023/06/17 08:48:54;;;;;;;5.53;4.13;;;28.20;75.20;;;;;;7393617;19;20158;-85
2023/06/17 08:51:20;;;;;;;3.92;3.50;;;27.90;75.60;;;;;;7397304;19;20135;-80
2023/06/17 08:53:51;;;;;;;8.02;5.07;;;28.30;76.20;;;;;;7395387;19;20153;-81
2023/06/17 08:56:17;;;;;;;9.18;4.22;;;28.70;75.30;;;;;;7395787;19;20135;-84
2023/06/17 08:58:47;;;;;;;11.35;5.40;;;28.60;75.20;;;;;;7395759;19;20184;-79
2023/06/17 09:01:20;;;;;;;5.60;4.63;;;28.80;73.80;;;;;;7385927;19;20130;-76
2023/06/17 09:03:54;;;;;;;6.68;4.90;;;28.80;73.30;;;;;;7392938;19;20484;-75
2023/06/17 09:06:25;;;;;;;3.85;3.45;;;29.00;72.80;;;;;;7389074;19;20551;-75
2023/06/17 09:08:52;;;;;;;5.07;3.90;;;28.80;71.70;;;;;;7391943;19;20455;-76
2023/06/17 09:11:31;;;;;;;5.88;4.18;;;28.50;71.40;;;;;;7394541;19;20146;-74
2023/06/17 09:14:03;;;;;;;4.90;3.85;;;28.20;72.80;;;;;;7387539;19;20141;-75
2023/06/17 09:16:33;;;;;;;4.93;3.90;;;28.10;73.00;;;;;;7387314;19;20206;-75
2023/06/17 09:19:02;;;;;;;3.65;3.30;;;28.00;74.40;;;;;;7385598;19;20139;-75
2023/06/17 09:21:28;;;;;;;6.10;4.10;;;28.00;73.70;;;;;;7387118;19;20616;-76
2023/06/17 09:24:05;;;;;;;5.45;3.42;;;28.10;71.80;;;;;;7382939;19;20147;-73
2023/06/17 09:26:32;;;;;;;5.18;4.10;;;28.10;72.10;;;;;;7386522;19;20130;-75
2023/06/17 09:29:02;;;;;;;3.72;3.42;;;28.00;71.60;;;;;;7385949;19;20150;-74
2023/06/17 09:31:31;;;;;;;5.65;3.42;;;27.80;71.10;;;;;;7384723;19;20134;-75
2023/06/17 09:33:58;;;;;;;4.25;3.30;;;27.70;73.00;;;;;;7386044;19;20210;-75
2023/06/17 09:36:25;;;;;;;6.53;3.20;;;27.80;71.90;;;;;;7384808;19;20575;-74
2023/06/17 09:38:51;;;;;;;4.70;3.75;;;27.60;71.50;;;;;;7385328;19;20138;-74
2023/06/17 09:41:20;;;;;;;4.13;3.30;;;27.30;72.50;;;;;;7386632;19;20147;-75
2023/06/17 09:43:53;;;;;;;3.58;3.28;;;27.20;73.10;;;;;;7390519;19;20753;-75
2023/06/17 09:46:49;;;;;;;5.55;3.40;;;27.20;72.40;;;;;;7390365;19;20139;-75
2023/06/17 09:49:16;;;;;;;3.72;3.28;;;27.10;72.90;;;;;;7391141;19;20646;-75
2023/06/17 09:51:43;;;;;;;2.97;2.60;;;27.10;71.20;;;;;;7385380;19;20254;-73
2023/06/17 09:54:12;;;;;;;6.80;2.88;;;27.30;67.70;;;;;;7389957;19;20135;-75
2023/06/17 09:56:38;;;;;;;4.25;2.60;;;27.40;66.90;;;;;;7391792;19;20151;-75
2023/06/17 09:59:08;;;;;;;8.52;6.30;;;27.30;66.50;;;;;;7390419;19;20214;-76
2023/06/17 10:01:38;;;;;;;4.25;3.00;;;27.30;66.80;;;;;;7389094;19;20146;-76
2023/06/17 10:04:05;;;;;;;3.35;3.05;;;27.70;66.70;;;;;;7390758;19;20182;-75
2023/06/17 10:06:34;;;;;;;3.65;3.08;;;28.00;68.30;;;;;;7391878;19;20733;-74
2023/06/17 10:09:06;;;;;;;4.22;3.10;;;28.20;68.10;;;;;;7390161;19;20571;-75
2023/06/17 10:11:34;;;;;;;5.88;3.47;;;28.20;64.60;;;;;;7391510;19;20160;-77
2023/06/17 10:14:06;;;;;;;140.10;17.90;;;27.90;64.10;;;;;;7390654;19;20156;-76
2023/06/17 10:16:36;;;;;;;6.38;3.08;;;27.50;65.90;;;;;;7390251;19;20143;-78
2023/06/17 10:19:05;;;;;;;3.67;3.05;;;27.00;73.00;;;;;;7387582;19;20156;-79
2023/06/17 10:21:33;;;;;;;5.15;2.90;;;27.00;69.60;;;;;;7391163;19;20134;-78
2023/06/17 10:24:02;;;;;;;4.63;2.92;;;27.20;67.60;;;;;;7387680;19;20206;-77
2023/06/17 10:26:30;;;;;;;4.47;3.38;;;27.30;72.50;;;;;;7392393;19;20141;-76
2023/06/17 10:29:10;;;;;;;6.70;3.40;;;27.50;66.00;;;;;;7388006;19;20869;-76
2023/06/17 10:31:38;;;;;;;3.90;3.50;;;27.50;65.10;;;;;;7388732;19;20487;-78
2023/06/17 10:34:06;;;;;;;3.10;2.78;;;27.30;69.40;;;;;;7388507;19;20165;-77
2023/06/17 10:36:37;;;;;;;3.22;2.92;;;27.50;70.50;;;;;;7391741;19;20148;-75
2023/06/17 10:39:06;;;;;;;3.83;2.95;;;27.50;70.50;;;;;;7390547;19;20503;-76
2023/06/17 10:41:38;;;;;;;3.50;3.05;;;27.80;70.00;;;;;;7385906;19;20150;-76
2023/06/17 10:44:34;;;;;;;4.28;3.10;;;27.90;66.70;;;;;;7387976;19;20338;-76
2023/06/17 10:47:00;;;;;;;3.67;2.85;;;27.90;65.70;;;;;;7389725;19;20219;-75
2023/06/17 10:49:38;;;;;;;4.53;2.90;;;27.80;64.00;;;;;;7389340;19;20138;-77
2023/06/17 10:52:04;;;;;;;6.28;4.18;;;27.60;67.50;;;;;;7381736;19;20582;-77
2023/06/17 10:54:32;;;;;;;3.60;3.03;;;27.80;65.10;;;;;;7384712;19;20163;-79
2023/06/17 10:57:02;;;;;;;3.83;2.90;;;27.80;64.00;;;;;;7387235;19;20894;-77
2023/06/17 10:59:31;;;;;;;3.17;2.65;;;27.90;63.60;;;;;;7383286;19;20143;-76
2023/06/17 11:02:02;;;;;;;5.20;3.15;;;27.80;64.90;;;;;;7384878;19;20145;-77
2023/06/17 11:04:32;;;;;;;3.33;2.78;;;27.80;67.60;;;;;;7391847;19;20138;-79
2023/06/17 11:07:04;;;;;;;4.07;3.10;;;27.90;65.30;;;;;;7390989;19;20157;-78
2023/06/17 11:09:33;;;;;;;3.75;2.88;;;28.00;64.40;;;;;;7388980;19;20134;-77
2023/06/17 11:12:02;;;;;;;5.70;3.08;;;28.00;65.60;;;;;;7388953;19;20217;-77
2023/06/17 11:14:33;;;;;;;3.38;2.83;;;28.10;65.40;;;;;;7392308;19;20157;-78
2023/06/17 11:16:58;;;;;;;3.92;3.13;;;28.30;62.50;;;;;;7388614;19;20650;-73
2023/06/17 11:19:24;;;;;;;3.72;2.88;;;28.10;61.00;;;;;;7385024;19;20237;-74
2023/06/17 11:22:07;;;;;;;3.72;3.03;;;27.70;61.00;;;;;;7387606;19;20138;-75
2023/06/17 11:24:34;;;;;;;3.35;2.78;;;27.60;61.40;;;;;;7387113;19;20143;-72
2023/06/17 11:27:01;;;;;;;5.35;2.97;;;27.70;61.50;;;;;;7382554;19;20158;-74
2023/06/17 11:29:28;;;;;;;4.93;3.20;;;27.70;63.20;;;;;;7385218;19;20149;-75
2023/06/17 11:31:58;;;;;;;3.83;3.40;;;27.90;60.90;;;;;;7376700;19;20547;-75
2023/06/17 11:34:24;;;;;;;3.17;2.88;;;28.00;60.00;;;;;;7380659;19;20334;-73
2023/06/17 11:36:53;;;;;;;4.65;3.15;;;27.80;60.30;;;;;;7381459;19;20533;-74
2023/06/17 11:39:22;;;;;;;2.83;2.53;;;27.80;62.90;;;;;;7386842;19;20166;-75
2023/06/17 11:41:52;;;;;;;3.40;3.00;;;28.00;61.20;;;;;;7386662;19;20202;-74
2023/06/17 11:44:18;;;;;;;4.82;3.17;;;28.10;62.30;;;;;;7383299;19;20526;-73
2023/06/17 11:46:49;;;;;;;4.25;3.33;;;28.20;62.30;;;;;;7386174;19;20142;-73
2023/06/17 11:49:15;;;;;;;3.15;2.85;;;28.50;60.20;;;;;;7390405;19;20161;-74
2023/06/17 11:51:48;;;;;;;3.78;3.28;;;28.40;61.80;;;;;;7385801;19;20583;-73
2023/06/17 11:54:14;;;;;;;6.30;3.35;;;28.60;59.80;;;;;;7388840;19;20190;-74
2023/06/17 11:56:40;;;;;;;3.13;2.75;;;28.40;59.80;;;;;;7387851;19;20163;-74
2023/06/17 11:59:06;;;;;;;5.47;2.75;;;28.10;60.70;;;;;;7385926;19;20147;-74
2023/06/17 12:01:32;;;;;;;4.28;2.90;;;27.80;62.00;;;;;;7385406;19;20163;-75
2023/06/17 12:03:58;;;;;;;3.33;2.70;;;28.00;62.60;;;;;;7389918;19;20143;-75
2023/06/17 12:06:24;;;;;;;2.65;2.38;;;28.20;61.00;;;;;;7387231;19;20153;-75
2023/06/17 12:09:03;;;;;;;3.40;2.55;;;28.30;60.00;;;;;;7388314;19;20139;-74
2023/06/17 12:11:35;;;;;;;3.65;2.88;;;28.30;60.50;;;;;;7386800;19;20175;-73
2023/06/17 12:14:09;;;;;;;3.75;2.60;;;28.30;61.20;;;;;;7387313;19;20165;-74
2023/06/17 12:16:40;;;;;;;2.97;2.67;;;28.40;59.50;;;;;;7387489;19;20146;-75
2023/06/17 12:19:23;;;;;;;4.32;2.85;;;28.60;58.40;;;;;;7383576;19;20222;-74
2023/06/17 12:21:50;;;;;;;3.28;2.97;;;28.70;61.40;;;;;;7386199;19;20625;-74
2023/06/17 12:24:17;;;;;;;3.50;2.75;;;28.70;58.80;;;;;;7390002;19;20215;-74
2023/06/17 12:26:44;;;;;;;4.70;2.85;;;28.50;58.50;;;;;;7384061;19;22861;-76
2023/06/17 12:29:10;;;;;;;3.25;2.95;;;28.20;58.50;;;;;;7387690;19;20200;-75
2023/06/17 12:31:36;;;;;;;3.80;2.80;;;28.00;58.80;;;;;;7386940;19;20182;-75
2023/06/17 12:34:03;;;;;;;3.10;2.80;;;27.80;60.60;;;;;;7386919;19;20683;-75
2023/06/17 12:36:31;;;;;;;5.38;2.97;;;28.00;59.80;;;;;;7382735;19;20135;-74
2023/06/17 12:38:57;;;;;;;3.20;2.90;;;28.10;60.00;;;;;;7384380;19;20131;-75
2023/06/17 12:41:22;;;;;;;3.20;2.50;;;28.30;60.30;;;;;;7386435;19;20482;-74
2023/06/17 12:43:48;;;;;;;3.20;2.60;;;28.50;59.40;;;;;;7383261;19;20186;-74
2023/06/17 12:46:14;;;;;;;3.33;2.70;;;28.60;60.00;;;;;;7385160;19;20135;-75